Beardsley, South Dakota
Current Conditions -  °F | °C
As of 5:53 PM on Saturday 22 Nov 2014 (Local Time) from KMHE Reporting Station
Clear Clear  
Wind Chill: 38°   Ceiling: Unl
Heat Index: 44°   Visibility: 10mi
Dew Point: 35°   Wind: 12mph
Humidity: 71%   Direction: 160°SSE
Pressure: 29.43"   Gusts: NA
Location:  43.4018°N, 97.9102°W
Report Text: KMHE 222353Z AUTO 16010KT 10SM CLR 07/02 A2943 RMK AO2 SLP977 T00670017 10100 20056 55013 $
Loading
Personal Weather Stations






























Interactive Weather Map New forecast layout! Learn more

10-Day Weather Forecast

Advertisements
Track Severe Weather on mobile